createdAt,value
2017-10-25T00:00:18.362Z,1008.4
2017-10-25T00:01:19.757Z,1008.4
2017-10-25T00:02:21.158Z,1008.4
2017-10-25T00:03:22.553Z,1008.4
2017-10-25T00:04:23.950Z,1008.4
2017-10-25T00:05:25.351Z,1008.3
2017-10-25T00:06:26.751Z,1008.3
2017-10-25T00:07:28.150Z,1008.4
2017-10-25T00:08:29.551Z,1008.3
2017-10-25T00:09:30.952Z,1008.3
2017-10-25T00:10:32.350Z,1008.4
2017-10-25T00:11:33.898Z,1008.3
2017-10-25T00:12:35.434Z,1008.3
2017-10-25T00:13:36.894Z,1008.3
2017-10-25T00:14:38.296Z,1008.3
2017-10-25T00:15:39.699Z,1008.4
2017-10-25T00:16:41.101Z,1008.4
2017-10-25T00:17:42.500Z,1008.3
2017-10-25T00:18:43.902Z,1008.3
2017-10-25T00:19:45.297Z,1008.4
2017-10-25T00:20:46.698Z,1008.4
2017-10-25T00:21:48.092Z,1008.3
2017-10-25T00:22:49.493Z,1008.3
2017-10-25T00:23:50.896Z,1008.3
2017-10-25T00:24:52.291Z,1008.3
2017-10-25T00:25:53.689Z,1008.3
2017-10-25T00:26:55.091Z,1008.3
2017-10-25T00:27:56.491Z,1008.3
2017-10-25T00:28:57.890Z,1008.3
2017-10-25T00:29:59.290Z,1008.3
2017-10-25T00:31:00.697Z,1008.3
2017-10-25T00:32:02.096Z,1008.3
2017-10-25T00:33:03.493Z,1008.3
2017-10-25T00:34:04.897Z,1008.3
2017-10-25T00:35:06.296Z,1008.3
2017-10-25T00:36:07.696Z,1008.2
2017-10-25T00:37:09.097Z,1008.2
2017-10-25T00:38:10.501Z,1008.3
2017-10-25T00:39:11.897Z,1008.2
2017-10-25T00:40:13.300Z,1008.2
2017-10-25T00:41:14.698Z,1008.2
2017-10-25T00:42:16.098Z,1008.1
2017-10-25T00:43:17.495Z,1008.1
2017-10-25T00:44:18.896Z,1008.1
2017-10-25T00:45:20.296Z,1008.1
2017-10-25T00:46:21.695Z,1008.1
2017-10-25T00:47:23.096Z,1008.1
2017-10-25T00:48:24.495Z,1008.1
2017-10-25T00:49:25.893Z,1008.1
2017-10-25T00:50:27.294Z,1008.1
2017-10-25T00:51:28.695Z,1008.1
2017-10-25T00:52:30.099Z,1008.1
2017-10-25T00:53:31.499Z,1008.1
2017-10-25T00:54:32.895Z,1008.2
2017-10-25T00:55:34.305Z,1008.1
2017-10-25T00:56:35.693Z,1008.1
2017-10-25T00:57:37.093Z,1008.1
2017-10-25T00:58:38.499Z,1008.1
2017-10-25T00:59:39.903Z,1008.1
2017-10-25T01:00:41.301Z,1008.1
2017-10-25T01:01:42.694Z,1008.1
2017-10-25T01:02:44.094Z,1008.1
2017-10-25T01:03:45.497Z,1008.1
2017-10-25T01:04:46.895Z,1008.1
2017-10-25T01:05:48.294Z,1008.1
2017-10-25T01:06:49.698Z,1008.1
2017-10-25T01:07:51.099Z,1008.1
2017-10-25T01:08:52.496Z,1008.1
2017-10-25T01:09:53.895Z,1008.1
2017-10-25T01:10:55.293Z,1008.1
2017-10-25T01:11:56.695Z,1008.1
2017-10-25T01:12:58.097Z,1008.2
2017-10-25T01:13:59.505Z,1008.2
2017-10-25T01:15:00.909Z,1008.1
2017-10-25T01:16:02.303Z,1008.1
2017-10-25T01:17:03.704Z,1008.1
2017-10-25T01:18:05.100Z,1008.1
2017-10-25T01:19:06.501Z,1008.1
2017-10-25T01:20:07.950Z,1008.1
2017-10-25T01:21:09.352Z,1008.1
2017-10-25T01:22:10.749Z,1008.1
2017-10-25T01:23:12.148Z,1008.1
2017-10-25T01:24:13.547Z,1008.1
2017-10-25T01:25:14.950Z,1008.1
2017-10-25T01:26:16.355Z,1008.0
2017-10-25T01:27:17.792Z,1008.1
2017-10-25T01:28:19.194Z,1008.1
2017-10-25T01:29:20.591Z,1008.1
2017-10-25T01:30:21.988Z,1008.1
2017-10-25T01:31:23.387Z,1008.0
2017-10-25T01:32:24.787Z,1008.0
2017-10-25T01:33:26.190Z,1008.1
2017-10-25T01:34:27.590Z,1008.0
2017-10-25T01:35:28.990Z,1008.0
2017-10-25T01:36:30.388Z,1008.0
2017-10-25T01:37:31.787Z,1007.9
2017-10-25T01:38:33.191Z,1007.9
2017-10-25T01:39:34.589Z,1007.9
2017-10-25T01:40:35.988Z,1008.0
2017-10-25T01:41:37.388Z,1008.0
2017-10-25T01:42:38.788Z,1008.0
2017-10-25T01:43:40.187Z,1007.9
2017-10-25T01:44:41.584Z,1008.0
2017-10-25T01:45:42.984Z,1008.0
2017-10-25T01:46:44.388Z,1008.0
2017-10-25T01:47:45.787Z,1008.0
2017-10-25T01:48:47.186Z,1007.9
2017-10-25T01:49:48.588Z,1007.9
2017-10-25T01:50:49.986Z,1007.9
2017-10-25T01:51:51.383Z,1007.9
2017-10-25T01:52:52.785Z,1007.9
2017-10-25T01:53:54.183Z,1007.9
2017-10-25T01:54:55.580Z,1007.9
2017-10-25T01:55:56.981Z,1007.9
2017-10-25T01:56:58.378Z,1007.9
2017-10-25T01:57:59.778Z,1007.8
2017-10-25T01:59:01.188Z,1007.8
2017-10-25T02:00:02.577Z,1007.8
2017-10-25T02:01:03.977Z,1007.8
2017-10-25T02:02:05.376Z,1007.8
2017-10-25T02:03:06.777Z,1007.8
2017-10-25T02:04:08.179Z,1007.8
2017-10-25T02:05:09.577Z,1007.7
2017-10-25T02:06:10.977Z,1007.7
2017-10-25T02:07:12.374Z,1007.7
2017-10-25T02:08:13.773Z,1007.7
2017-10-25T02:09:15.175Z,1007.7
2017-10-25T02:10:16.576Z,1007.7
2017-10-25T02:11:17.976Z,1007.7
2017-10-25T02:12:19.371Z,1007.7
2017-10-25T02:13:20.773Z,1007.6
2017-10-25T02:14:22.172Z,1007.7
2017-10-25T02:15:23.571Z,1007.7
2017-10-25T02:16:24.974Z,1007.6
2017-10-25T02:17:26.379Z,1007.7
2017-10-25T02:18:27.782Z,1007.6
2017-10-25T02:19:29.180Z,1007.6
2017-10-25T02:20:30.578Z,1007.6
2017-10-25T02:21:31.975Z,1007.6
2017-10-25T02:22:33.375Z,1007.6
2017-10-25T02:23:34.779Z,1007.6
2017-10-25T02:24:36.177Z,1007.6
2017-10-25T02:25:37.583Z,1007.6
2017-10-25T02:26:38.980Z,1007.5
2017-10-25T02:27:40.382Z,1007.5
2017-10-25T02:28:41.780Z,1007.6
2017-10-25T02:29:43.184Z,1007.6
2017-10-25T02:30:44.584Z,1007.6
2017-10-25T02:31:45.983Z,1007.5
2017-10-25T02:32:47.386Z,1007.6
2017-10-25T02:33:48.783Z,1007.5
2017-10-25T02:34:50.185Z,1007.6
2017-10-25T02:35:51.581Z,1007.6
2017-10-25T02:36:52.980Z,1007.5
2017-10-25T02:37:54.383Z,1007.5
2017-10-25T02:38:55.782Z,1007.6
2017-10-25T02:39:57.184Z,1007.6
2017-10-25T02:40:58.589Z,1007.5
2017-10-25T02:41:59.983Z,1007.5
2017-10-25T02:43:01.379Z,1007.5
2017-10-25T02:44:02.781Z,1007.5
2017-10-25T02:45:04.184Z,1007.5
2017-10-25T02:46:05.578Z,1007.5
2017-10-25T02:47:06.982Z,1007.5
2017-10-25T02:48:08.379Z,1007.6
2017-10-25T02:49:09.777Z,1007.5
2017-10-25T02:50:11.174Z,1007.6
2017-10-25T02:51:12.573Z,1007.5
2017-10-25T02:52:13.974Z,1007.5
2017-10-25T02:53:15.374Z,1007.5
2017-10-25T02:54:16.772Z,1007.5
2017-10-25T02:55:18.174Z,1007.5
2017-10-25T02:56:19.575Z,1007.6
2017-10-25T02:57:20.975Z,1007.5
2017-10-25T02:58:22.379Z,1007.6
2017-10-25T02:59:23.826Z,1007.6
2017-10-25T03:00:25.226Z,1007.6
2017-10-25T03:01:26.624Z,1007.5
2017-10-25T03:02:28.025Z,1007.6
2017-10-25T03:03:29.425Z,1007.6
2017-10-25T03:04:30.824Z,1007.5
2017-10-25T03:05:32.226Z,1007.6
2017-10-25T03:06:33.624Z,1007.5
2017-10-25T03:07:35.025Z,1007.5
2017-10-25T03:08:36.426Z,1007.5
2017-10-25T03:09:37.823Z,1007.5
2017-10-25T03:10:39.222Z,1007.5
2017-10-25T03:11:40.623Z,1007.5
2017-10-25T03:12:42.021Z,1007.6
2017-10-25T03:13:43.427Z,1007.5
2017-10-25T03:14:44.827Z,1007.5
2017-10-25T03:15:46.230Z,1007.5
2017-10-25T03:16:47.628Z,1007.5
2017-10-25T03:17:49.027Z,1007.5
2017-10-25T03:18:50.422Z,1007.5
2017-10-25T03:19:51.826Z,1007.5
2017-10-25T03:20:53.225Z,1007.5
2017-10-25T03:21:54.623Z,1007.5
2017-10-25T03:22:56.025Z,1007.5
2017-10-25T03:23:57.425Z,1007.5
2017-10-25T03:24:58.823Z,1007.5
2017-10-25T03:26:00.223Z,1007.5
2017-10-25T03:27:01.629Z,1007.5
2017-10-25T03:28:03.021Z,1007.5
2017-10-25T03:29:04.425Z,1007.5
2017-10-25T03:30:05.826Z,1007.5
2017-10-25T03:31:07.237Z,1007.5
2017-10-25T03:32:08.622Z,1007.4
2017-10-25T03:33:10.020Z,1007.5
2017-10-25T03:34:11.419Z,1007.5
2017-10-25T03:35:12.819Z,1007.4
2017-10-25T03:36:14.221Z,1007.4
2017-10-25T03:37:15.624Z,1007.4
2017-10-25T03:38:17.020Z,1007.4
2017-10-25T03:39:18.421Z,1007.4
2017-10-25T03:40:19.821Z,1007.4
2017-10-25T03:41:21.218Z,1007.3
2017-10-25T03:42:22.619Z,1007.4
2017-10-25T03:43:24.019Z,1007.4
2017-10-25T03:44:25.420Z,1007.4
2017-10-25T03:45:26.817Z,1007.4
2017-10-25T03:46:28.216Z,1007.4
2017-10-25T03:47:29.623Z,1007.4
2017-10-25T03:48:31.027Z,1007.4
2017-10-25T03:49:32.434Z,1007.4
2017-10-25T03:50:33.836Z,1007.4
2017-10-25T03:51:35.236Z,1007.5
2017-10-25T03:52:36.636Z,1007.4
2017-10-25T03:53:38.036Z,1007.4
2017-10-25T03:54:39.435Z,1007.3
2017-10-25T03:55:40.839Z,1007.3
2017-10-25T03:56:42.242Z,1007.4
2017-10-25T03:57:43.641Z,1007.3
2017-10-25T03:58:45.040Z,1007.3
2017-10-25T03:59:46.436Z,1007.3
2017-10-25T04:00:47.838Z,1007.3
2017-10-25T04:01:49.239Z,1007.3
2017-10-25T04:02:50.644Z,1007.3
2017-10-25T04:03:52.043Z,1007.3
2017-10-25T04:04:53.443Z,1007.3
2017-10-25T04:05:54.843Z,1007.3
2017-10-25T04:06:56.241Z,1007.3
2017-10-25T04:07:57.641Z,1007.3
2017-10-25T04:08:59.041Z,1007.4
2017-10-25T04:10:00.437Z,1007.4
2017-10-25T04:11:01.837Z,1007.4
2017-10-25T04:12:03.243Z,1007.4
2017-10-25T04:13:04.639Z,1007.4
2017-10-25T04:14:06.039Z,1007.4
2017-10-25T04:15:07.435Z,1007.5
2017-10-25T04:16:08.836Z,1007.5
2017-10-25T04:17:10.236Z,1007.5
2017-10-25T04:18:11.636Z,1007.5
2017-10-25T04:19:13.035Z,1007.5
2017-10-25T04:20:14.436Z,1007.5
2017-10-25T04:21:15.834Z,1007.5
2017-10-25T04:22:17.235Z,1007.6
2017-10-25T04:23:18.630Z,1007.5
2017-10-25T04:24:20.030Z,1007.6
2017-10-25T04:25:21.431Z,1007.5
2017-10-25T04:26:22.832Z,1007.5
2017-10-25T04:27:24.234Z,1007.5
2017-10-25T04:28:25.631Z,1007.5
2017-10-25T04:29:27.031Z,1007.6
2017-10-25T04:30:28.434Z,1007.6
2017-10-25T04:31:29.833Z,1007.6
2017-10-25T04:32:31.233Z,1007.6
2017-10-25T04:33:32.641Z,1007.6
2017-10-25T04:34:34.038Z,1007.5
2017-10-25T04:35:35.433Z,1007.5
2017-10-25T04:36:36.834Z,1007.6
2017-10-25T04:37:38.230Z,1007.5
2017-10-25T04:38:39.672Z,1007.6
2017-10-25T04:39:41.073Z,1007.5
2017-10-25T04:40:42.660Z,1007.5
2017-10-25T04:41:44.059Z,1007.5
2017-10-25T04:42:45.462Z,1007.5
2017-10-25T04:43:46.863Z,1007.5
2017-10-25T04:44:48.263Z,1007.5
2017-10-25T04:45:49.662Z,1007.5
2017-10-25T04:46:51.067Z,1007.6
2017-10-25T04:47:52.585Z,1007.6
2017-10-25T04:48:53.999Z,1007.6
2017-10-25T04:49:55.390Z,1007.5
2017-10-25T04:50:56.786Z,1007.5
2017-10-25T04:51:58.185Z,1007.5
2017-10-25T04:52:59.590Z,1007.5
2017-10-25T04:54:00.986Z,1007.5
2017-10-25T04:55:02.395Z,1007.5
2017-10-25T04:56:03.791Z,1007.4
2017-10-25T04:57:05.192Z,1007.4
2017-10-25T04:58:06.597Z,1007.4
2017-10-25T04:59:07.992Z,1007.4
2017-10-25T05:00:09.392Z,1007.3
2017-10-25T05:01:10.791Z,1007.3
2017-10-25T05:02:12.191Z,1007.3
2017-10-25T05:03:13.592Z,1007.2
2017-10-25T05:04:14.991Z,1007.3
2017-10-25T05:05:16.384Z,1007.2
2017-10-25T05:06:17.782Z,1007.3
2017-10-25T05:07:19.182Z,1007.3
2017-10-25T05:08:20.591Z,1007.3
2017-10-25T05:09:21.992Z,1007.3
2017-10-25T05:10:23.391Z,1007.3
2017-10-25T05:11:24.799Z,1007.4
2017-10-25T05:12:26.210Z,1007.3
2017-10-25T05:13:27.604Z,1007.3
2017-10-25T05:14:29.000Z,1007.3
2017-10-25T05:15:30.404Z,1007.3
2017-10-25T05:16:31.804Z,1007.3
2017-10-25T05:17:33.208Z,1007.3
2017-10-25T05:18:34.606Z,1007.3
2017-10-25T05:19:36.002Z,1007.3
2017-10-25T05:20:37.400Z,1007.3
2017-10-25T05:21:38.801Z,1007.4
2017-10-25T05:22:40.200Z,1007.3
2017-10-25T05:23:41.600Z,1007.4
2017-10-25T05:24:43.004Z,1007.3
2017-10-25T05:25:44.401Z,1007.3
2017-10-25T05:26:45.799Z,1007.3
2017-10-25T05:27:47.391Z,1007.3
2017-10-25T05:28:48.795Z,1007.2
2017-10-25T05:29:50.193Z,1007.3
2017-10-25T05:30:51.595Z,1007.3
2017-10-25T05:31:52.997Z,1007.3
2017-10-25T05:32:54.394Z,1007.3
2017-10-25T05:33:55.795Z,1007.2
2017-10-25T05:34:57.193Z,1007.2
2017-10-25T05:35:58.594Z,1007.2
2017-10-25T05:36:59.996Z,1007.3
2017-10-25T05:38:01.396Z,1007.4
2017-10-25T05:39:03.149Z,1007.4
2017-10-25T05:40:04.543Z,1007.3
2017-10-25T05:41:05.941Z,1007.3
2017-10-25T05:42:08.468Z,1007.3
2017-10-25T05:43:09.751Z,1007.4
2017-10-25T05:44:11.149Z,1007.4
2017-10-25T05:45:12.550Z,1007.3
2017-10-25T05:46:13.948Z,1007.3
2017-10-25T05:47:15.346Z,1007.3
2017-10-25T05:48:16.747Z,1007.4
2017-10-25T05:49:18.144Z,1007.3
2017-10-25T05:50:19.547Z,1007.4
2017-10-25T05:51:20.949Z,1007.4
2017-10-25T05:52:22.354Z,1007.4
2017-10-25T05:53:23.750Z,1007.4
2017-10-25T05:54:25.150Z,1007.4
2017-10-25T05:55:26.556Z,1007.4
2017-10-25T05:56:27.954Z,1007.3
2017-10-25T05:57:29.353Z,1007.2
2017-10-25T05:58:30.754Z,1007.3
2017-10-25T05:59:32.154Z,1007.3
2017-10-25T06:00:33.561Z,1007.4
2017-10-25T06:01:34.959Z,1007.4
2017-10-25T06:02:36.359Z,1007.5
2017-10-25T06:03:37.758Z,1007.5
2017-10-25T06:04:39.159Z,1007.4
2017-10-25T06:05:40.563Z,1007.4
2017-10-25T06:06:41.963Z,1007.4
2017-10-25T06:07:43.369Z,1007.5
2017-10-25T06:08:44.764Z,1007.4
2017-10-25T06:09:46.159Z,1007.4
2017-10-25T06:10:47.561Z,1007.4
2017-10-25T06:11:48.965Z,1007.4
2017-10-25T06:12:50.367Z,1007.4
2017-10-25T06:13:51.800Z,1007.4
2017-10-25T06:14:53.207Z,1007.4
2017-10-25T06:15:54.607Z,1007.4
2017-10-25T06:16:56.005Z,1007.4
2017-10-25T06:17:57.403Z,1007.4
2017-10-25T06:18:58.805Z,1007.5
2017-10-25T06:20:00.214Z,1007.5
2017-10-25T06:21:01.610Z,1007.5
2017-10-25T06:22:03.012Z,1007.5
2017-10-25T06:23:04.408Z,1007.4
2017-10-25T06:24:05.809Z,1007.5
2017-10-25T06:25:07.209Z,1007.5
2017-10-25T06:26:08.610Z,1007.5
2017-10-25T06:27:10.012Z,1007.5
2017-10-25T06:28:11.413Z,1007.5
2017-10-25T06:29:12.814Z,1007.5
2017-10-25T06:30:14.209Z,1007.6
2017-10-25T06:31:15.611Z,1007.6
2017-10-25T06:32:17.011Z,1007.5
2017-10-25T06:33:18.420Z,1007.5
2017-10-25T06:34:19.818Z,1007.5
2017-10-25T06:35:21.221Z,1007.5
2017-10-25T06:36:22.627Z,1007.5
2017-10-25T06:37:24.024Z,1007.5
2017-10-25T06:38:25.424Z,1007.5
2017-10-25T06:39:26.822Z,1007.5
2017-10-25T06:40:28.224Z,1007.6
2017-10-25T06:41:29.627Z,1007.6
2017-10-25T06:42:31.039Z,1007.6
2017-10-25T06:43:32.437Z,1007.5
2017-10-25T06:44:33.837Z,1007.5
2017-10-25T06:45:35.253Z,1007.5
2017-10-25T06:46:36.638Z,1007.5
2017-10-25T06:47:38.041Z,1007.4
2017-10-25T06:48:39.451Z,1007.5
2017-10-25T06:49:40.846Z,1007.5
2017-10-25T06:50:42.253Z,1007.5
2017-10-25T06:51:43.655Z,1007.5
2017-10-25T06:52:45.056Z,1007.5
2017-10-25T06:53:46.460Z,1007.5
2017-10-25T06:54:47.859Z,1007.5
2017-10-25T06:57:58.644Z,1007.5
2017-10-25T06:59:00.117Z,1007.5
2017-10-25T07:00:01.508Z,1007.5
2017-10-25T07:01:02.898Z,1007.6
2017-10-25T07:02:04.293Z,1007.5
2017-10-25T07:03:05.688Z,1007.5
2017-10-25T07:04:07.094Z,1007.6
2017-10-25T07:05:08.491Z,1007.6
2017-10-25T07:06:09.884Z,1007.6
2017-10-25T07:07:11.280Z,1007.7
2017-10-25T07:08:12.670Z,1007.7
2017-10-25T07:09:54.578Z,1007.7
2017-10-25T07:10:55.959Z,1007.8
2017-10-25T07:12:17.460Z,1007.8
2017-10-25T07:13:18.852Z,1007.8
2017-10-25T07:14:40.388Z,1007.7
2017-10-25T07:15:41.780Z,1007.7
2017-10-25T07:17:03.285Z,1007.8
2017-10-25T07:18:04.671Z,1007.8
2017-10-25T07:19:26.202Z,1007.9
2017-10-25T07:20:27.596Z,1007.8
2017-10-25T07:21:50.087Z,1007.8
2017-10-25T07:22:51.480Z,1007.9
2017-10-25T07:24:13.006Z,1007.8
2017-10-25T07:25:14.396Z,1007.8
2017-10-25T07:26:36.883Z,1007.8
2017-10-25T07:27:38.278Z,1007.9
2017-10-25T07:29:00.768Z,1007.8
2017-10-25T07:30:02.211Z,1007.8
2017-10-25T07:31:24.733Z,1007.9
2017-10-25T07:32:26.136Z,1007.9
2017-10-25T07:33:47.639Z,1008.0
2017-10-25T07:34:49.039Z,1008.0
2017-10-25T07:36:10.562Z,1007.9
2017-10-25T07:37:11.953Z,1007.9
2017-10-25T07:38:33.458Z,1007.9
2017-10-25T07:39:34.852Z,1007.9
2017-10-25T07:40:56.499Z,1007.9
2017-10-25T07:41:57.889Z,1007.9
2017-10-25T07:43:19.387Z,1007.9
2017-10-25T07:44:20.778Z,1007.9
2017-10-25T07:45:42.321Z,1008.0
2017-10-25T07:46:43.714Z,1007.9
2017-10-25T07:48:06.206Z,1007.9
2017-10-25T07:49:07.599Z,1008.0
2017-10-25T07:50:30.096Z,1008.0
2017-10-25T07:51:31.490Z,1008.0
2017-10-25T07:52:53.014Z,1007.9
2017-10-25T07:53:54.408Z,1007.9
2017-10-25T07:55:16.907Z,1007.9
2017-10-25T07:56:18.304Z,1007.9
2017-10-25T07:57:19.699Z,1008.0
2017-10-25T07:58:21.113Z,1008.0
2017-10-25T07:59:22.507Z,1008.1
2017-10-25T08:00:23.905Z,1007.9
2017-10-25T08:01:25.308Z,1007.9
2017-10-25T08:02:26.696Z,1007.9
2017-10-25T08:03:28.096Z,1007.9
2017-10-25T08:04:29.489Z,1007.9
2017-10-25T08:05:30.883Z,1008.0
2017-10-25T08:06:32.281Z,1008.0
2017-10-25T08:07:33.674Z,1008.1
2017-10-25T08:08:35.069Z,1008.1
2017-10-25T08:09:36.466Z,1008.1
2017-10-25T08:10:37.858Z,1008.1
2017-10-25T08:11:39.253Z,1008.1
2017-10-25T08:12:40.648Z,1008.1
2017-10-25T08:13:42.041Z,1008.2
2017-10-25T08:14:43.436Z,1008.1
2017-10-25T08:15:44.832Z,1008.2
2017-10-25T08:16:46.230Z,1008.2
2017-10-25T08:17:47.628Z,1008.2
2017-10-25T08:18:49.025Z,1008.1
2017-10-25T08:19:50.423Z,1008.1
2017-10-25T08:20:51.819Z,1008.2
2017-10-25T08:21:53.214Z,1008.1
2017-10-25T08:22:54.615Z,1008.1
2017-10-25T08:23:56.012Z,1008.2
2017-10-25T08:24:57.407Z,1008.2
2017-10-25T08:25:58.802Z,1008.2
2017-10-25T08:27:00.198Z,1008.2
2017-10-25T08:28:01.597Z,1008.3
2017-10-25T08:29:02.995Z,1008.2
2017-10-25T08:30:04.396Z,1008.2
2017-10-25T08:31:05.799Z,1008.3
2017-10-25T08:32:07.190Z,1008.3
2017-10-25T08:33:08.584Z,1008.3
2017-10-25T08:34:09.975Z,1008.2
2017-10-25T08:35:11.376Z,1008.2
2017-10-25T08:36:12.814Z,1008.2
2017-10-25T08:37:14.172Z,1008.2
2017-10-25T08:38:15.570Z,1008.1
2017-10-25T08:39:16.963Z,1008.1
2017-10-25T08:40:18.363Z,1008.0
2017-10-25T08:41:19.756Z,1008.2
2017-10-25T08:42:21.153Z,1008.1
2017-10-25T08:43:22.553Z,1008.1
2017-10-25T08:44:23.948Z,1008.2
2017-10-25T08:45:25.346Z,1008.2
2017-10-25T08:46:26.738Z,1008.2
2017-10-25T08:47:28.136Z,1008.2
2017-10-25T08:48:29.546Z,1008.2
2017-10-25T08:49:30.925Z,1008.2
2017-10-25T08:50:32.323Z,1008.2
2017-10-25T08:51:33.724Z,1008.3
2017-10-25T08:52:35.118Z,1008.3
2017-10-25T08:53:36.512Z,1008.3
2017-10-25T08:54:37.912Z,1008.3
2017-10-25T08:55:39.306Z,1008.2
2017-10-25T08:56:40.705Z,1008.2
2017-10-25T08:57:42.103Z,1008.3
2017-10-25T08:58:43.503Z,1008.3
2017-10-25T08:59:44.906Z,1008.2
2017-10-25T09:00:46.295Z,1008.2
2017-10-25T09:01:47.691Z,1008.3
2017-10-25T09:02:49.087Z,1008.2
2017-10-25T09:03:50.481Z,1008.2
2017-10-25T09:04:51.877Z,1008.3
2017-10-25T09:05:53.276Z,1008.3
2017-10-25T09:06:54.675Z,1008.3
2017-10-25T09:07:56.070Z,1008.3
2017-10-25T09:08:57.466Z,1008.3
2017-10-25T09:09:58.863Z,1008.3
2017-10-25T09:11:00.263Z,1008.4
2017-10-25T09:12:01.656Z,1008.4
2017-10-25T09:13:03.053Z,1008.5
2017-10-25T09:14:04.453Z,1008.4
2017-10-25T09:15:05.847Z,1008.5
2017-10-25T09:16:07.242Z,1008.4
2017-10-25T09:17:08.651Z,1008.4
2017-10-25T09:18:10.039Z,1008.3
2017-10-25T09:19:11.434Z,1008.4
2017-10-25T09:20:12.836Z,1008.4
2017-10-25T09:21:14.267Z,1008.4
2017-10-25T09:22:15.660Z,1008.4
2017-10-25T09:23:17.053Z,1008.4
2017-10-25T09:24:18.451Z,1008.4
2017-10-25T09:25:19.848Z,1008.5
2017-10-25T09:26:21.246Z,1008.4
2017-10-25T09:27:22.645Z,1008.5
2017-10-25T09:28:24.046Z,1008.5
2017-10-25T09:29:25.446Z,1008.7
2017-10-25T09:30:26.843Z,1008.6
2017-10-25T09:31:28.240Z,1008.6
2017-10-25T09:32:29.636Z,1008.6
2017-10-25T09:33:31.036Z,1008.6
2017-10-25T09:34:32.436Z,1008.6
2017-10-25T09:35:33.837Z,1008.6
2017-10-25T09:36:35.231Z,1008.6
2017-10-25T09:37:36.628Z,1008.6
2017-10-25T09:38:38.027Z,1008.7
2017-10-25T09:39:39.416Z,1008.7
2017-10-25T09:40:40.818Z,1008.6
2017-10-25T09:41:42.220Z,1008.6
2017-10-25T09:42:43.614Z,1008.6
2017-10-25T09:43:45.007Z,1008.7
2017-10-25T09:44:46.406Z,1008.7
2017-10-25T09:45:47.805Z,1008.8
2017-10-25T09:46:49.199Z,1008.8
2017-10-25T09:47:50.594Z,1008.8
2017-10-25T09:48:51.999Z,1008.8
2017-10-25T09:49:53.401Z,1008.8
2017-10-25T09:50:54.794Z,1008.6
2017-10-25T09:51:56.193Z,1008.8
2017-10-25T09:52:57.597Z,1008.8
2017-10-25T09:53:58.997Z,1008.7
2017-10-25T09:55:00.398Z,1008.7
2017-10-25T09:56:01.797Z,1008.6
2017-10-25T09:57:03.196Z,1008.7
2017-10-25T09:58:04.597Z,1008.7
2017-10-25T09:59:05.995Z,1008.7
2017-10-25T10:00:07.389Z,1008.6
2017-10-25T10:01:08.790Z,1008.5
2017-10-25T10:02:10.194Z,1008.7
2017-10-25T10:03:11.597Z,1008.7
2017-10-25T10:04:13.000Z,1008.8
2017-10-25T10:05:14.393Z,1008.7
2017-10-25T10:06:15.792Z,1008.8
2017-10-25T10:07:17.189Z,1008.7
2017-10-25T10:08:18.588Z,1008.8
2017-10-25T10:09:19.986Z,1008.7
2017-10-25T10:10:21.384Z,1008.8
2017-10-25T10:11:22.787Z,1008.8
2017-10-25T10:12:24.183Z,1008.7
2017-10-25T10:13:25.618Z,1008.9
2017-10-25T10:14:27.016Z,1008.7
2017-10-25T10:15:28.418Z,1008.7
2017-10-25T10:16:29.817Z,1008.6
2017-10-25T10:17:31.223Z,1008.8
2017-10-25T10:18:32.627Z,1008.8
2017-10-25T10:19:34.029Z,1008.9
2017-10-25T10:20:35.427Z,1008.8
2017-10-25T10:21:36.828Z,1008.8
2017-10-25T10:22:38.237Z,1009.0
2017-10-25T10:23:39.637Z,1009.0
2017-10-25T10:24:41.039Z,1008.9
2017-10-25T10:25:42.450Z,1009.0
2017-10-25T10:26:43.848Z,1009.0
2017-10-25T10:27:45.248Z,1009.0
2017-10-25T10:28:46.649Z,1009.0
2017-10-25T10:29:48.057Z,1009.0
2017-10-25T10:30:49.456Z,1009.1
2017-10-25T10:31:50.860Z,1008.9
2017-10-25T10:32:52.261Z,1008.9
2017-10-25T10:33:53.662Z,1008.9
2017-10-25T10:34:55.065Z,1009.0
2017-10-25T10:35:56.467Z,1009.0
2017-10-25T10:36:57.868Z,1009.0
2017-10-25T10:37:59.266Z,1009.1
2017-10-25T10:39:00.670Z,1008.9
2017-10-25T10:40:02.089Z,1009.0
2017-10-25T10:41:03.481Z,1009.1
2017-10-25T10:42:04.883Z,1009.0
2017-10-25T10:43:06.286Z,1008.8
2017-10-25T10:44:07.686Z,1008.7
2017-10-25T10:45:09.085Z,1008.7
2017-10-25T10:46:10.490Z,1008.8
2017-10-25T10:47:11.896Z,1008.9
2017-10-25T10:48:13.300Z,1008.8
2017-10-25T10:49:14.707Z,1008.8
2017-10-25T10:50:16.109Z,1009.0
2017-10-25T10:51:17.513Z,1009.0
2017-10-25T10:52:18.915Z,1008.8
2017-10-25T10:53:20.326Z,1008.8
2017-10-25T10:54:21.723Z,1008.9
2017-10-25T10:55:23.119Z,1008.8
2017-10-25T10:56:24.518Z,1008.8
2017-10-25T10:57:25.919Z,1008.8
2017-10-25T10:58:27.324Z,1008.8
2017-10-25T10:59:28.726Z,1009.0
2017-10-25T11:00:30.133Z,1008.8
2017-10-25T11:01:31.528Z,1008.8
2017-10-25T11:02:32.931Z,1008.8
2017-10-25T11:03:34.330Z,1008.8
2017-10-25T11:04:35.732Z,1008.8
2017-10-25T11:05:37.128Z,1008.8
2017-10-25T11:06:38.532Z,1008.8
2017-10-25T11:07:39.933Z,1008.8
2017-10-25T11:08:41.332Z,1008.8
2017-10-25T11:09:42.729Z,1008.8
2017-10-25T11:10:44.129Z,1008.8
2017-10-25T11:11:45.527Z,1008.9
2017-10-25T11:12:46.926Z,1008.9
2017-10-25T11:13:48.323Z,1008.9
2017-10-25T11:14:49.728Z,1008.9
2017-10-25T11:15:51.122Z,1008.9
2017-10-25T11:16:52.516Z,1008.9
2017-10-25T11:17:53.914Z,1008.9
2017-10-25T11:18:55.313Z,1008.9
2017-10-25T11:19:56.713Z,1008.9
2017-10-25T11:20:58.065Z,1008.9
2017-10-25T11:21:59.468Z,1008.9
2017-10-25T11:23:00.864Z,1008.8
2017-10-25T11:24:02.262Z,1008.9
2017-10-25T11:25:03.658Z,1008.8
2017-10-25T11:26:05.055Z,1008.8
2017-10-25T11:27:06.452Z,1008.8
2017-10-25T11:28:07.850Z,1008.8
2017-10-25T11:29:09.248Z,1008.8
2017-10-25T11:30:10.647Z,1008.9
2017-10-25T11:31:12.044Z,1008.8
2017-10-25T11:32:13.463Z,1008.9
2017-10-25T11:33:14.843Z,1008.9
2017-10-25T11:34:16.238Z,1008.9
2017-10-25T11:35:17.637Z,1008.9
2017-10-25T11:36:19.036Z,1008.9
2017-10-25T11:37:20.435Z,1009.0
2017-10-25T11:38:21.830Z,1008.9
2017-10-25T11:39:23.228Z,1009.0
2017-10-25T11:40:24.625Z,1009.0
2017-10-25T11:41:26.024Z,1009.0
2017-10-25T11:42:27.422Z,1009.0
2017-10-25T11:43:28.821Z,1009.0
2017-10-25T11:44:30.221Z,1009.1
2017-10-25T11:45:31.620Z,1009.0
2017-10-25T11:46:33.014Z,1009.1
2017-10-25T11:47:34.419Z,1009.0
2017-10-25T11:48:35.818Z,1009.0
2017-10-25T11:49:37.222Z,1009.0
2017-10-25T11:50:38.620Z,1009.0
2017-10-25T11:51:40.027Z,1009.0
2017-10-25T11:52:41.448Z,1009.0
2017-10-25T11:53:42.842Z,1009.0
2017-10-25T11:54:44.237Z,1009.0
2017-10-25T11:55:45.633Z,1008.9
2017-10-25T11:56:47.032Z,1009.0
2017-10-25T11:57:48.430Z,1008.9
2017-10-25T11:58:49.836Z,1009.0
2017-10-25T11:59:51.229Z,1009.0
2017-10-25T12:00:52.638Z,1009.2
2017-10-25T12:01:54.033Z,1009.1
2017-10-25T12:02:55.430Z,1009.0
2017-10-25T12:03:56.822Z,1009.0
2017-10-25T12:04:58.219Z,1009.0
2017-10-25T12:05:59.617Z,1009.1
2017-10-25T12:07:01.013Z,1009.0
2017-10-25T12:08:02.408Z,1009.0
2017-10-25T12:09:03.805Z,1009.0
2017-10-25T12:10:05.203Z,1009.0
2017-10-25T12:11:06.601Z,1009.1
2017-10-25T12:12:07.999Z,1009.1
2017-10-25T12:13:09.396Z,1009.0
2017-10-25T12:14:10.790Z,1009.1
2017-10-25T12:15:12.184Z,1009.0
2017-10-25T12:16:13.581Z,1009.0
2017-10-25T12:17:14.975Z,1009.0
2017-10-25T12:18:16.374Z,1009.1
2017-10-25T12:19:17.776Z,1009.0
2017-10-25T12:20:19.173Z,1009.0
2017-10-25T12:21:20.565Z,1009.0
2017-10-25T12:22:21.963Z,1009.0
2017-10-25T12:23:23.358Z,1009.0
2017-10-25T12:24:24.754Z,1008.9
2017-10-25T12:25:26.153Z,1009.0
2017-10-25T12:26:27.553Z,1009.0
2017-10-25T12:27:28.955Z,1009.0
2017-10-25T12:28:30.349Z,1009.0
2017-10-25T12:29:31.745Z,1009.1
2017-10-25T12:30:33.140Z,1009.0
2017-10-25T12:31:34.537Z,1009.0
2017-10-25T12:32:35.934Z,1009.0
2017-10-25T12:33:37.331Z,1009.0
2017-10-25T12:34:38.737Z,1009.0
2017-10-25T12:35:40.124Z,1009.1
2017-10-25T12:36:41.520Z,1009.1
2017-10-25T12:37:42.915Z,1009.1
2017-10-25T12:38:44.314Z,1009.1
2017-10-25T12:39:45.707Z,1009.1
2017-10-25T12:40:47.106Z,1009.1
2017-10-25T12:41:48.509Z,1009.1
2017-10-25T12:42:49.902Z,1009.1
2017-10-25T12:43:51.299Z,1009.2
2017-10-25T12:44:52.692Z,1009.1
2017-10-25T12:45:54.086Z,1009.1
2017-10-25T12:46:55.481Z,1009.1
2017-10-25T12:47:56.880Z,1009.0
2017-10-25T12:48:58.277Z,1009.1
2017-10-25T12:49:59.673Z,1009.1
2017-10-25T12:51:01.076Z,1009.1
2017-10-25T12:52:02.467Z,1009.1
2017-10-25T12:53:03.869Z,1009.0
2017-10-25T12:54:05.265Z,1009.1
2017-10-25T12:55:06.667Z,1009.1